createdAt,value
2022-11-04T00:03:34.389Z,11.20
2022-11-04T00:06:25.624Z,11.10
2022-11-04T00:09:19.475Z,11.10
2022-11-04T00:14:49.964Z,11.10
2022-11-04T00:17:41.435Z,11.10
2022-11-04T00:20:50.412Z,11.10
2022-11-04T00:23:59.805Z,11.10
2022-11-04T00:29:35.968Z,11.10
2022-11-04T00:32:45.242Z,11.10
2022-11-04T00:35:36.670Z,11.10
2022-11-04T00:41:27.164Z,11.10
2022-11-04T00:44:18.767Z,11.00
2022-11-04T00:47:10.212Z,10.90
2022-11-04T00:50:01.332Z,10.90
2022-11-04T00:52:52.816Z,10.80
2022-11-04T00:55:44.489Z,10.80
2022-11-04T01:01:18.657Z,10.80
2022-11-04T01:04:11.192Z,10.70
2022-11-04T01:07:02.367Z,10.60
2022-11-04T01:09:53.796Z,10.60
2022-11-04T01:12:45.114Z,10.60
2022-11-04T01:15:37.814Z,10.60
2022-11-04T01:18:30.445Z,10.60
2022-11-04T01:21:21.534Z,10.60
2022-11-04T01:24:13.097Z,10.60
2022-11-04T01:27:04.846Z,10.50
2022-11-04T01:29:56.408Z,10.50
2022-11-04T01:32:47.762Z,10.30
2022-11-04T01:38:33.588Z,10.20
2022-11-04T01:41:26.541Z,10.50
2022-11-04T01:47:36.045Z,10.40
2022-11-04T01:50:30.371Z,10.50
2022-11-04T01:53:24.857Z,10.40
2022-11-04T01:58:56.968Z,10.20
2022-11-04T02:01:48.675Z,10.10
2022-11-04T02:04:41.385Z,10.00
2022-11-04T02:10:15.037Z,9.80
2022-11-04T02:13:07.884Z,9.80
2022-11-04T02:18:53.263Z,9.70
2022-11-04T02:22:11.663Z,9.70
2022-11-04T02:25:17.160Z,9.60
2022-11-04T02:28:26.254Z,9.50
2022-11-04T02:31:20.917Z,9.50
2022-11-04T02:36:58.547Z,9.60
2022-11-04T02:39:55.261Z,9.60
2022-11-04T02:42:52.122Z,9.50
2022-11-04T02:45:45.795Z,9.50
2022-11-04T02:48:40.731Z,9.40
2022-11-04T02:51:34.969Z,9.40
2022-11-04T02:57:24.155Z,9.20
2022-11-04T03:00:18.629Z,9.40
2022-11-04T03:03:13.877Z,9.40
2022-11-04T03:06:06.272Z,9.40
2022-11-04T03:08:59.237Z,9.30
2022-11-04T03:14:41.471Z,9.30
2022-11-04T03:17:36.798Z,9.30
2022-11-04T03:20:30.376Z,9.30
2022-11-04T03:23:21.824Z,9.30
2022-11-04T03:28:56.809Z,9.40
2022-11-04T03:34:29.396Z,9.50
2022-11-04T03:37:20.813Z,9.50
2022-11-04T03:40:14.808Z,9.50
2022-11-04T03:45:45.034Z,9.60
2022-11-04T03:48:36.278Z,9.60
2022-11-04T03:51:27.384Z,9.60
2022-11-04T03:54:18.946Z,9.60
2022-11-04T03:57:30.673Z,9.60
2022-11-04T04:00:23.932Z,9.60
2022-11-04T04:03:18.673Z,9.50
2022-11-04T04:06:13.460Z,9.50
2022-11-04T04:11:54.119Z,9.30
2022-11-04T04:14:48.622Z,9.30
2022-11-04T04:17:42.567Z,9.20
2022-11-04T04:20:37.161Z,9.20
2022-11-04T04:23:49.409Z,9.20
2022-11-04T04:27:00.783Z,9.20
2022-11-04T04:29:54.833Z,9.20
2022-11-04T04:32:49.871Z,9.10
2022-11-04T04:35:44.405Z,9.10
2022-11-04T04:38:53.936Z,9.10
2022-11-04T04:44:43.227Z,9.10
2022-11-04T04:47:39.186Z,9.10
2022-11-04T04:50:33.653Z,9.10
2022-11-04T04:56:08.786Z,9.00
2022-11-04T04:59:00.232Z,9.00
2022-11-04T05:04:32.663Z,8.90
2022-11-04T05:07:24.192Z,8.90
2022-11-04T05:10:17.409Z,8.90
2022-11-04T05:13:27.172Z,8.80
2022-11-04T05:18:57.655Z,8.70
2022-11-04T05:21:48.917Z,8.70
2022-11-04T05:24:40.300Z,8.60
2022-11-04T05:27:31.735Z,8.70
2022-11-04T05:30:23.568Z,8.60
2022-11-04T05:33:14.802Z,8.50
2022-11-04T05:36:11.287Z,8.60
2022-11-04T05:41:41.283Z,8.60
2022-11-04T05:44:32.362Z,8.60
2022-11-04T05:47:23.739Z,8.60
2022-11-04T05:50:15.044Z,8.70
2022-11-04T05:53:06.723Z,8.60
2022-11-04T05:55:58.144Z,8.60
2022-11-04T05:58:49.625Z,8.70
2022-11-04T06:01:44.123Z,8.70
2022-11-04T06:04:36.185Z,8.70
2022-11-04T06:07:27.560Z,8.70
2022-11-04T06:10:19.378Z,8.80
2022-11-04T06:15:52.752Z,8.80
2022-11-04T06:18:44.333Z,8.80
2022-11-04T06:21:36.505Z,8.80
2022-11-04T06:24:28.000Z,8.80
2022-11-04T06:27:19.606Z,8.80
2022-11-04T06:30:14.433Z,8.80
2022-11-04T06:33:06.192Z,8.80
2022-11-04T06:38:40.212Z,9.00
2022-11-04T06:44:12.100Z,9.00
2022-11-04T06:47:03.338Z,9.10
2022-11-04T06:49:54.921Z,9.10
2022-11-04T06:52:49.381Z,9.10
2022-11-04T06:55:41.156Z,9.20
2022-11-04T06:58:32.563Z,9.30
2022-11-04T07:01:27.124Z,9.30
2022-11-04T07:04:18.836Z,9.30
2022-11-04T07:07:10.136Z,9.40
2022-11-04T07:10:01.713Z,9.40
2022-11-04T07:12:54.593Z,9.40
2022-11-04T07:15:46.250Z,9.50
2022-11-04T07:18:38.013Z,9.50
2022-11-04T07:24:09.920Z,9.80
2022-11-04T07:29:41.161Z,9.90
2022-11-04T07:32:33.211Z,10.00
2022-11-04T07:38:08.642Z,10.10
2022-11-04T07:41:00.801Z,10.10
2022-11-04T07:43:55.102Z,10.10
2022-11-04T07:46:46.542Z,10.20
2022-11-04T07:49:38.089Z,10.20
2022-11-04T07:52:29.774Z,10.20
2022-11-04T07:58:02.283Z,10.20
2022-11-04T08:00:55.317Z,10.20
2022-11-04T08:03:46.608Z,10.20
2022-11-04T08:06:38.163Z,10.30
2022-11-04T08:12:15.672Z,10.30
2022-11-04T08:15:08.935Z,10.20
2022-11-04T08:18:00.246Z,10.20
2022-11-04T08:20:52.793Z,10.20
2022-11-04T08:23:44.640Z,10.40
2022-11-04T08:29:19.547Z,10.40
2022-11-04T08:32:10.659Z,10.30
2022-11-04T08:35:02.443Z,10.20
2022-11-04T08:37:54.169Z,10.30
2022-11-04T08:40:46.297Z,10.40
2022-11-04T08:43:38.608Z,10.50
2022-11-04T08:46:34.332Z,10.50
2022-11-04T08:49:30.605Z,10.60
2022-11-04T08:52:21.999Z,10.70
2022-11-04T08:55:13.823Z,10.80
2022-11-04T08:58:04.951Z,10.60
2022-11-04T09:00:56.135Z,10.60
2022-11-04T09:03:47.582Z,10.70
2022-11-04T09:06:41.760Z,10.80
2022-11-04T09:09:33.480Z,10.80
2022-11-04T09:21:42.986Z,10.90
2022-11-04T09:24:34.023Z,10.90
2022-11-04T09:27:25.054Z,10.90
2022-11-04T09:30:16.744Z,10.90
2022-11-04T09:35:57.771Z,10.90
2022-11-04T09:38:48.764Z,10.90
2022-11-04T09:42:22.308Z,10.90
2022-11-04T09:45:21.488Z,11.00
2022-11-04T09:48:12.279Z,10.90
2022-11-04T09:53:44.931Z,11.00
2022-11-04T09:59:20.044Z,11.00
2022-11-04T10:02:27.724Z,11.00
2022-11-04T10:05:29.016Z,10.90
2022-11-04T10:14:35.472Z,10.90
2022-11-04T10:17:42.457Z,10.90
2022-11-04T10:20:47.173Z,10.90
2022-11-04T10:23:42.385Z,10.90
2022-11-04T10:42:47.663Z,11.00
2022-11-04T10:45:41.679Z,10.80
2022-11-04T10:48:37.018Z,10.60
2022-11-04T10:54:11.090Z,10.40
2022-11-04T10:57:02.958Z,10.40
2022-11-04T10:59:57.079Z,10.30
2022-11-04T11:02:50.042Z,10.30
2022-11-04T11:05:42.672Z,10.20
2022-11-04T11:08:37.446Z,10.10
2022-11-04T11:11:41.575Z,10.00
2022-11-04T11:14:38.879Z,10.00
2022-11-04T11:17:39.056Z,10.00
2022-11-04T11:20:32.188Z,10.00
2022-11-04T11:23:40.076Z,9.90
2022-11-04T11:29:14.089Z,9.70
2022-11-04T11:32:06.278Z,9.60
2022-11-04T11:34:58.913Z,9.60
2022-11-04T11:37:50.612Z,9.60
2022-11-04T11:41:03.590Z,9.50
2022-11-04T11:43:39.081Z,9.50
2022-11-04T11:49:15.523Z,9.70
2022-11-04T11:55:23.096Z,9.70
2022-11-04T12:09:33.964Z,9.90
2022-11-04T12:15:27.770Z,10.10
2022-11-04T12:18:39.028Z,10.10
2022-11-04T12:24:31.784Z,10.00
2022-11-04T12:27:27.719Z,10.00
2022-11-04T12:30:28.242Z,10.00
2022-11-04T12:33:21.448Z,10.00
2022-11-04T12:42:29.635Z,10.60
2022-11-04T12:45:25.850Z,10.70
2022-11-04T12:48:21.857Z,10.90
2022-11-04T12:54:04.938Z,11.10
2022-11-04T12:57:00.214Z,11.10
2022-11-04T13:00:11.905Z,11.20
2022-11-04T13:03:06.601Z,11.20
2022-11-04T13:06:01.555Z,11.30
2022-11-04T13:11:35.586Z,11.50
2022-11-04T13:14:30.368Z,11.60
2022-11-04T13:17:25.656Z,11.70
2022-11-04T13:20:23.460Z,11.80
2022-11-04T13:25:56.432Z,11.70
2022-11-04T13:28:51.749Z,11.70
2022-11-04T13:34:39.338Z,11.60
2022-11-04T13:37:33.174Z,11.50
2022-11-04T13:40:28.233Z,11.60
2022-11-04T13:43:39.490Z,11.50
2022-11-04T13:49:14.683Z,11.50
2022-11-04T13:52:09.415Z,11.30
2022-11-04T13:57:51.999Z,11.00
2022-11-04T14:00:45.274Z,10.90
2022-11-04T14:03:54.831Z,10.80
2022-11-04T14:12:40.209Z,10.80
2022-11-04T14:18:43.075Z,10.80
2022-11-04T14:21:37.007Z,10.80
2022-11-04T14:24:29.584Z,10.80
2022-11-04T14:27:29.587Z,10.80
2022-11-04T14:30:45.861Z,10.80
2022-11-04T14:33:42.679Z,10.80
2022-11-04T14:36:36.936Z,10.90
2022-11-04T14:39:31.438Z,11.00
2022-11-04T14:42:37.265Z,11.10
2022-11-04T14:45:31.190Z,11.20
2022-11-04T14:48:22.895Z,11.20
2022-11-04T14:51:25.073Z,11.20
2022-11-04T14:54:20.877Z,11.20
2022-11-04T14:57:17.888Z,11.10
2022-11-04T15:00:28.457Z,11.00
2022-11-04T15:06:34.904Z,10.80
2022-11-04T15:09:23.915Z,10.80
2022-11-04T15:12:35.160Z,10.70
2022-11-04T15:15:33.493Z,10.70
2022-11-04T15:18:29.401Z,10.70
2022-11-04T15:21:20.521Z,10.60
2022-11-04T15:24:17.621Z,10.60
2022-11-04T15:27:13.545Z,10.60
2022-11-04T15:30:07.227Z,10.60
2022-11-04T15:33:01.138Z,10.60
2022-11-04T15:35:53.697Z,10.60
2022-11-04T15:38:48.587Z,10.60
2022-11-04T15:42:16.439Z,10.50
2022-11-04T15:45:35.773Z,10.60
2022-11-04T15:48:36.303Z,10.50
2022-11-04T15:51:29.245Z,10.40
2022-11-04T15:54:26.321Z,10.30
2022-11-04T15:57:20.176Z,10.20
2022-11-04T16:00:20.099Z,9.90
2022-11-04T16:03:20.698Z,9.80
2022-11-04T16:06:12.993Z,9.70
2022-11-04T16:09:09.391Z,9.70
2022-11-04T16:12:15.512Z,9.70
2022-11-04T16:15:08.426Z,9.70
2022-11-04T16:17:59.655Z,9.70
2022-11-04T16:20:53.257Z,9.70
2022-11-04T16:23:49.221Z,9.70
2022-11-04T16:26:44.975Z,9.70
2022-11-04T16:29:41.643Z,9.70
2022-11-04T16:32:34.076Z,9.70
2022-11-04T16:35:27.088Z,9.70
2022-11-04T16:38:18.482Z,9.70
2022-11-04T16:41:10.947Z,9.70
2022-11-04T16:44:02.048Z,9.70
2022-11-04T16:46:53.886Z,9.70
2022-11-04T16:49:45.044Z,9.70
2022-11-04T16:52:44.149Z,9.70
2022-11-04T16:55:34.815Z,9.70
2022-11-04T16:58:26.470Z,9.70
2022-11-04T17:01:19.366Z,9.70
2022-11-04T17:04:11.453Z,9.70
2022-11-04T17:07:02.907Z,9.70
2022-11-04T17:09:54.248Z,9.70
2022-11-04T17:12:46.321Z,9.60
2022-11-04T17:15:39.089Z,9.60
2022-11-04T17:18:33.200Z,9.60
2022-11-04T17:21:24.751Z,9.60
2022-11-04T17:24:16.369Z,9.70
2022-11-04T17:27:07.604Z,9.70
2022-11-04T17:29:59.102Z,9.60
2022-11-04T17:32:51.265Z,9.40
2022-11-04T17:35:45.017Z,9.50
2022-11-04T17:38:36.679Z,9.50
2022-11-04T17:41:46.423Z,9.50
2022-11-04T17:44:38.172Z,9.50
2022-11-04T17:47:29.621Z,9.40
2022-11-04T17:50:21.555Z,9.40
2022-11-04T17:53:13.082Z,9.30
2022-11-04T17:56:05.177Z,9.20
2022-11-04T17:58:57.044Z,9.10
2022-11-04T18:01:48.903Z,9.10
2022-11-04T18:04:40.760Z,9.10
2022-11-04T18:07:33.826Z,9.20
2022-11-04T18:10:27.935Z,9.30
2022-11-04T18:13:20.949Z,9.20
2022-11-04T18:16:13.584Z,9.10
2022-11-04T18:19:05.165Z,9.00
2022-11-04T18:22:18.597Z,9.10
2022-11-04T18:25:12.283Z,9.10
2022-11-04T18:31:27.311Z,9.10
2022-11-04T18:34:20.109Z,9.10
2022-11-04T18:37:11.581Z,9.10
2022-11-04T18:40:02.860Z,9.10
2022-11-04T18:42:54.069Z,9.20
2022-11-04T18:45:45.170Z,9.20
2022-11-04T18:48:37.411Z,9.20
2022-11-04T18:51:29.263Z,9.30
2022-11-04T18:54:20.883Z,9.20
2022-11-04T18:57:12.961Z,9.10
2022-11-04T19:00:04.922Z,9.10
2022-11-04T19:02:56.211Z,9.00
2022-11-04T19:05:47.599Z,9.10
2022-11-04T19:08:45.321Z,9.10
2022-11-04T19:11:34.650Z,9.10
2022-11-04T19:14:26.059Z,9.20
2022-11-04T19:17:17.264Z,9.20
2022-11-04T19:20:12.465Z,9.10
2022-11-04T19:23:04.308Z,9.10
2022-11-04T19:26:01.037Z,9.20
2022-11-04T19:28:53.490Z,9.20
2022-11-04T19:31:45.312Z,9.20
2022-11-04T19:34:36.630Z,9.00
2022-11-04T19:37:28.111Z,8.90
2022-11-04T19:40:20.406Z,8.90
2022-11-04T19:43:12.159Z,8.90
2022-11-04T19:46:04.980Z,8.80
2022-11-04T19:48:56.818Z,8.90
2022-11-04T19:51:48.389Z,8.80
2022-11-04T19:54:40.208Z,8.80
2022-11-04T19:57:32.188Z,8.70
2022-11-04T20:00:24.444Z,8.80
2022-11-04T20:03:16.226Z,8.70
2022-11-04T20:06:11.313Z,8.70
2022-11-04T20:09:05.642Z,8.80
2022-11-04T20:12:14.422Z,8.80
2022-11-04T20:15:06.354Z,8.80
2022-11-04T20:17:57.486Z,8.70
2022-11-04T20:20:48.975Z,8.70
2022-11-04T20:23:40.361Z,8.70
2022-11-04T20:26:32.851Z,8.70
2022-11-04T20:29:24.324Z,8.80
2022-11-04T20:32:15.523Z,9.00
2022-11-04T20:35:08.285Z,9.00
2022-11-04T20:37:59.458Z,9.00
2022-11-04T20:40:52.265Z,9.00
2022-11-04T20:43:43.833Z,9.00
2022-11-04T20:46:36.282Z,8.90
2022-11-04T20:49:28.021Z,8.90
2022-11-04T20:52:19.340Z,8.90
2022-11-04T20:55:12.871Z,8.90
2022-11-04T20:58:04.715Z,8.80
2022-11-04T21:00:55.998Z,8.90
2022-11-04T21:03:48.302Z,8.90
2022-11-04T21:06:40.246Z,8.90
2022-11-04T21:09:31.681Z,8.90
2022-11-04T21:12:23.086Z,8.80
2022-11-04T21:15:16.503Z,8.80
2022-11-04T21:18:08.661Z,8.70
2022-11-04T21:21:00.905Z,8.70
2022-11-04T21:23:54.513Z,8.80
2022-11-04T21:26:46.785Z,8.80
2022-11-04T21:29:39.499Z,8.80
2022-11-04T21:32:31.434Z,8.80
2022-11-04T21:35:22.327Z,8.80
2022-11-04T21:38:16.066Z,8.80
2022-11-04T21:41:09.980Z,8.80
2022-11-04T21:44:02.493Z,8.90
2022-11-04T21:46:54.259Z,8.80
2022-11-04T21:49:45.705Z,8.90
2022-11-04T21:52:37.158Z,8.90
2022-11-04T21:55:28.743Z,8.90
2022-11-04T21:58:20.178Z,8.90
2022-11-04T22:01:13.046Z,8.90
2022-11-04T22:04:05.264Z,9.00
2022-11-04T22:06:56.358Z,9.00
2022-11-04T22:09:47.674Z,9.00
2022-11-04T22:12:39.223Z,9.00
2022-11-04T22:15:49.989Z,9.00
2022-11-04T22:18:41.616Z,9.00
2022-11-04T22:21:34.258Z,9.10
2022-11-04T22:24:25.531Z,9.00
2022-11-04T22:27:17.135Z,9.10
2022-11-04T22:30:11.805Z,9.00
2022-11-04T22:33:03.851Z,8.90
2022-11-04T22:35:55.905Z,9.00
2022-11-04T22:38:48.982Z,8.90
2022-11-04T22:41:40.426Z,9.00
2022-11-04T22:44:31.785Z,9.00
2022-11-04T22:47:23.435Z,9.10
2022-11-04T22:50:15.349Z,9.10
2022-11-04T22:53:06.806Z,9.00
2022-11-04T22:56:01.059Z,9.00
2022-11-04T22:58:54.373Z,9.00
2022-11-04T23:01:46.746Z,9.00
2022-11-04T23:07:05.817Z,9.10
2022-11-04T23:10:15.198Z,9.10
2022-11-04T23:13:27.414Z,9.10
2022-11-04T23:16:41.992Z,9.10
2022-11-04T23:19:33.831Z,9.10
2022-11-04T23:22:43.175Z,9.00
2022-11-04T23:25:34.494Z,9.00
2022-11-04T23:28:45.770Z,9.00
2022-11-04T23:31:37.006Z,9.00
2022-11-04T23:34:46.096Z,9.10
2022-11-04T23:37:37.485Z,9.10
2022-11-04T23:40:31.092Z,9.10
2022-11-04T23:43:22.564Z,9.00
2022-11-04T23:46:33.081Z,9.00
2022-11-04T23:49:47.419Z,9.10
2022-11-04T23:52:56.349Z,9.00
2022-11-04T23:56:21.506Z,9.00
